sensor_id;sensor_type;location;lat;lon;timestamp;pressure;altitude;pressure_sealevel;temperature;humidity
22440;BME280;11387;51.612;7.210;2023-04-30T00:02:20;101444.69;;;6.28;100.00
22440;BME280;11387;51.612;7.210;2023-04-30T00:04:52;101453.25;;;6.20;100.00
22440;BME280;11387;51.612;7.210;2023-04-30T00:07:23;101451.28;;;6.15;100.00
22440;BME280;11387;51.612;7.210;2023-04-30T00:09:55;101449.88;;;6.29;100.00
22440;BME280;11387;51.612;7.210;2023-04-30T00:12:25;101449.88;;;6.29;100.00
22440;BME280;11387;51.612;7.210;2023-04-30T00:14:56;101452.50;;;6.24;100.00
22440;BME280;11387;51.612;7.210;2023-04-30T00:17:28;101445.94;;;6.20;100.00
22440;BME280;11387;51.612;7.210;2023-04-30T00:20:02;101451.84;;;6.17;100.00
22440;BME280;11387;51.612;7.210;2023-04-30T00:22:33;101454.06;;;6.20;100.00
22440;BME280;11387;51.612;7.210;2023-04-30T00:25:06;101454.16;;;6.25;100.00
22440;BME280;11387;51.612;7.210;2023-04-30T00:27:39;101453.66;;;6.28;100.00
22440;BME280;11387;51.612;7.210;2023-04-30T00:30:14;101456.78;;;6.20;100.00
22440;BME280;11387;51.612;7.210;2023-04-30T00:32:45;101459.19;;;6.17;100.00
22440;BME280;11387;51.612;7.210;2023-04-30T00:35:15;101458.63;;;5.98;100.00
22440;BME280;11387;51.612;7.210;2023-04-30T00:37:44;101453.44;;;5.80;100.00
22440;BME280;11387;51.612;7.210;2023-04-30T00:40:28;101465.75;;;5.70;100.00
22440;BME280;11387;51.612;7.210;2023-04-30T00:43:01;101463.53;;;5.67;100.00
22440;BME280;11387;51.612;7.210;2023-04-30T00:45:31;101463.53;;;5.67;100.00
22440;BME280;11387;51.612;7.210;2023-04-30T00:47:59;101465.56;;;5.60;100.00
22440;BME280;11387;51.612;7.210;2023-04-30T00:50:29;101470.56;;;5.52;100.00
22440;BME280;11387;51.612;7.210;2023-04-30T00:52:58;101456.09;;;5.46;100.00
22440;BME280;11387;51.612;7.210;2023-04-30T00:55:27;101458.72;;;5.41;100.00
22440;BME280;11387;51.612;7.210;2023-04-30T00:57:56;101458.97;;;5.39;100.00
22440;BME280;11387;51.612;7.210;2023-04-30T01:00:25;101471.13;;;5.37;100.00
22440;BME280;11387;51.612;7.210;2023-04-30T01:02:54;101469.25;;;5.54;100.00
22440;BME280;11387;51.612;7.210;2023-04-30T01:05:24;101466.00;;;5.69;100.00
22440;BME280;11387;51.612;7.210;2023-04-30T01:07:54;101467.59;;;5.53;100.00
22440;BME280;11387;51.612;7.210;2023-04-30T01:10:24;101461.19;;;5.43;100.00
22440;BME280;11387;51.612;7.210;2023-04-30T01:12:57;101465.13;;;5.35;100.00
22440;BME280;11387;51.612;7.210;2023-04-30T01:15:31;101455.22;;;5.29;100.00
22440;BME280;11387;51.612;7.210;2023-04-30T01:18:04;101467.06;;;5.23;100.00
22440;BME280;11387;51.612;7.210;2023-04-30T01:20:35;101462.63;;;5.17;100.00
22440;BME280;11387;51.612;7.210;2023-04-30T01:23:10;101468.34;;;5.20;100.00
22440;BME280;11387;51.612;7.210;2023-04-30T01:25:43;101467.94;;;5.12;100.00
22440;BME280;11387;51.612;7.210;2023-04-30T01:28:14;101461.94;;;5.10;100.00
22440;BME280;11387;51.612;7.210;2023-04-30T01:30:43;101469.84;;;4.99;100.00
22440;BME280;11387;51.612;7.210;2023-04-30T01:33:12;101462.69;;;4.93;100.00
22440;BME280;11387;51.612;7.210;2023-04-30T01:38:32;101460.03;;;4.82;100.00
22440;BME280;11387;51.612;7.210;2023-04-30T01:41:06;101464.38;;;4.83;100.00
22440;BME280;11387;51.612;7.210;2023-04-30T01:43:41;101461.91;;;4.81;100.00
22440;BME280;11387;51.612;7.210;2023-04-30T01:46:16;101469.63;;;4.89;100.00
22440;BME280;11387;51.612;7.210;2023-04-30T01:48:48;101465.63;;;4.92;100.00
22440;BME280;11387;51.612;7.210;2023-04-30T01:51:19;101467.75;;;4.90;100.00
22440;BME280;11387;51.612;7.210;2023-04-30T01:53:51;101468.59;;;4.90;100.00
22440;BME280;11387;51.612;7.210;2023-04-30T01:56:24;101463.16;;;4.90;100.00
22440;BME280;11387;51.612;7.210;2023-04-30T01:58:56;101463.09;;;4.85;100.00
22440;BME280;11387;51.612;7.210;2023-04-30T02:01:25;101463.22;;;4.79;100.00
22440;BME280;11387;51.612;7.210;2023-04-30T02:03:54;101475.34;;;4.76;100.00
22440;BME280;11387;51.612;7.210;2023-04-30T02:06:23;101470.50;;;4.78;100.00
22440;BME280;11387;51.612;7.210;2023-04-30T02:08:55;101476.41;;;4.75;100.00
22440;BME280;11387;51.612;7.210;2023-04-30T02:11:28;101478.88;;;4.77;100.00
22440;BME280;11387;51.612;7.210;2023-04-30T02:13:59;101479.13;;;4.75;100.00
22440;BME280;11387;51.612;7.210;2023-04-30T02:16:27;101484.91;;;4.67;100.00
22440;BME280;11387;51.612;7.210;2023-04-30T02:18:55;101482.31;;;4.72;100.00
22440;BME280;11387;51.612;7.210;2023-04-30T02:21:36;101490.09;;;4.68;100.00
22440;BME280;11387;51.612;7.210;2023-04-30T02:24:04;101472.31;;;4.61;100.00
22440;BME280;11387;51.612;7.210;2023-04-30T02:26:33;101479.53;;;4.55;100.00
22440;BME280;11387;51.612;7.210;2023-04-30T02:29:03;101485.66;;;4.51;100.00
22440;BME280;11387;51.612;7.210;2023-04-30T02:31:31;101472.56;;;4.48;100.00
22440;BME280;11387;51.612;7.210;2023-04-30T02:34:00;101483.53;;;4.53;100.00
22440;BME280;11387;51.612;7.210;2023-04-30T02:36:29;101487.31;;;4.52;100.00
22440;BME280;11387;51.612;7.210;2023-04-30T02:39:02;101475.75;;;4.45;100.00
22440;BME280;11387;51.612;7.210;2023-04-30T02:41:31;101481.06;;;4.39;100.00
22440;BME280;11387;51.612;7.210;2023-04-30T02:43:59;101473.41;;;4.36;100.00
22440;BME280;11387;51.612;7.210;2023-04-30T02:46:30;101475.41;;;4.41;100.00
22440;BME280;11387;51.612;7.210;2023-04-30T02:48:59;101473.50;;;4.42;100.00
22440;BME280;11387;51.612;7.210;2023-04-30T02:51:27;101469.16;;;4.40;100.00
22440;BME280;11387;51.612;7.210;2023-04-30T02:53:56;101463.63;;;4.35;100.00
22440;BME280;11387;51.612;7.210;2023-04-30T02:56:24;101466.91;;;4.37;100.00
22440;BME280;11387;51.612;7.210;2023-04-30T02:58:53;101478.34;;;4.39;100.00
22440;BME280;11387;51.612;7.210;2023-04-30T03:01:21;101473.63;;;4.47;100.00
22440;BME280;11387;51.612;7.210;2023-04-30T03:03:51;101466.44;;;4.52;100.00
22440;BME280;11387;51.612;7.210;2023-04-30T03:06:20;101474.19;;;4.60;100.00
22440;BME280;11387;51.612;7.210;2023-04-30T03:08:48;101472.75;;;4.69;100.00
22440;BME280;11387;51.612;7.210;2023-04-30T03:11:17;101472.63;;;4.76;100.00
22440;BME280;11387;51.612;7.210;2023-04-30T03:14:00;101463.91;;;4.74;100.00
22440;BME280;11387;51.612;7.210;2023-04-30T03:16:28;101459.09;;;4.76;100.00
22440;BME280;11387;51.612;7.210;2023-04-30T03:18:58;101466.50;;;4.81;100.00
22440;BME280;11387;51.612;7.210;2023-04-30T03:21:27;101464.13;;;4.84;100.00
22440;BME280;11387;51.612;7.210;2023-04-30T03:23:56;101467.09;;;4.83;100.00
22440;BME280;11387;51.612;7.210;2023-04-30T03:26:24;101471.09;;;4.80;100.00
22440;BME280;11387;51.612;7.210;2023-04-30T03:28:53;101465.03;;;4.90;100.00
22440;BME280;11387;51.612;7.210;2023-04-30T03:31:22;101470.88;;;4.82;100.00
22440;BME280;11387;51.612;7.210;2023-04-30T03:33:50;101471.09;;;4.80;100.00
22440;BME280;11387;51.612;7.210;2023-04-30T03:36:20;101475.22;;;4.83;100.00
22440;BME280;11387;51.612;7.210;2023-04-30T03:38:49;101463.66;;;4.87;100.00
22440;BME280;11387;51.612;7.210;2023-04-30T03:41:17;101471.88;;;4.92;100.00
22440;BME280;11387;51.612;7.210;2023-04-30T03:43:46;101474.50;;;4.87;100.00
22440;BME280;11387;51.612;7.210;2023-04-30T03:46:14;101472.63;;;4.88;100.00
22440;BME280;11387;51.612;7.210;2023-04-30T03:48:43;101474.00;;;4.90;100.00
22440;BME280;11387;51.612;7.210;2023-04-30T03:51:11;101475.81;;;4.85;100.00
22440;BME280;11387;51.612;7.210;2023-04-30T03:53:41;101477.22;;;4.87;100.00
22440;BME280;11387;51.612;7.210;2023-04-30T03:56:11;101476.72;;;4.90;100.00
22440;BME280;11387;51.612;7.210;2023-04-30T03:58:40;101474.81;;;4.91;100.00
22440;BME280;11387;51.612;7.210;2023-04-30T04:01:08;101478.81;;;5.00;100.00
22440;BME280;11387;51.612;7.210;2023-04-30T04:03:37;101469.28;;;4.97;100.00
22440;BME280;11387;51.612;7.210;2023-04-30T04:06:05;101476.97;;;4.89;100.00
22440;BME280;11387;51.612;7.210;2023-04-30T04:08:34;101482.25;;;4.95;100.00
22440;BME280;11387;51.612;7.210;2023-04-30T04:11:04;101472.16;;;4.79;100.00
22440;BME280;11387;51.612;7.210;2023-04-30T04:13:33;101478.75;;;4.83;100.00
22440;BME280;11387;51.612;7.210;2023-04-30T04:16:01;101480.19;;;4.74;100.00
22440;BME280;11387;51.612;7.210;2023-04-30T04:18:30;101483.59;;;4.81;100.00
22440;BME280;11387;51.612;7.210;2023-04-30T04:20:58;101485.84;;;4.84;100.00
22440;BME280;11387;51.612;7.210;2023-04-30T04:23:27;101476.97;;;4.89;100.00
22440;BME280;11387;51.612;7.210;2023-04-30T04:25:56;101473.34;;;4.83;100.00
22440;BME280;11387;51.612;7.210;2023-04-30T04:28:25;101487.97;;;4.82;100.00
22440;BME280;11387;51.612;7.210;2023-04-30T04:30:54;101487.03;;;4.77;100.00
22440;BME280;11387;51.612;7.210;2023-04-30T04:33:23;101489.38;;;4.73;100.00
22440;BME280;11387;51.612;7.210;2023-04-30T04:35:51;101491.63;;;4.76;100.00
22440;BME280;11387;51.612;7.210;2023-04-30T04:38:20;101486.91;;;4.83;100.00
22440;BME280;11387;51.612;7.210;2023-04-30T04:40:52;101494.25;;;4.99;100.00
22440;BME280;11387;51.612;7.210;2023-04-30T04:43:20;101500.50;;;5.00;100.00
22440;BME280;11387;51.612;7.210;2023-04-30T04:45:50;101501.44;;;5.05;100.00
22440;BME280;11387;51.612;7.210;2023-04-30T04:48:19;101493.91;;;5.07;100.00
22440;BME280;11387;51.612;7.210;2023-04-30T04:50:48;101488.59;;;5.01;100.00
22440;BME280;11387;51.612;7.210;2023-04-30T04:53:16;101492.25;;;5.06;100.00
22440;BME280;11387;51.612;7.210;2023-04-30T04:55:44;101501.19;;;5.19;100.00
22440;BME280;11387;51.612;7.210;2023-04-30T04:58:13;101496.06;;;5.22;100.00
22440;BME280;11387;51.612;7.210;2023-04-30T05:00:41;101497.47;;;5.25;100.00
22440;BME280;11387;51.612;7.210;2023-04-30T05:03:12;101492.72;;;5.32;100.00
22440;BME280;11387;51.612;7.210;2023-04-30T05:05:41;101492.84;;;5.37;100.00
22440;BME280;11387;51.612;7.210;2023-04-30T05:08:10;101492.94;;;5.42;100.00
22440;BME280;11387;51.612;7.210;2023-04-30T05:10:39;101492.94;;;5.42;100.00
22440;BME280;11387;51.612;7.210;2023-04-30T05:13:07;101497.19;;;5.38;100.00
22440;BME280;11387;51.612;7.210;2023-04-30T05:15:36;101491.28;;;5.41;100.00
22440;BME280;11387;51.612;7.210;2023-04-30T05:18:05;101501.19;;;5.47;100.00
22440;BME280;11387;51.612;7.210;2023-04-30T05:20:35;101500.69;;;5.50;100.00
22440;BME280;11387;51.612;7.210;2023-04-30T05:23:03;101508.09;;;5.55;100.00
22440;BME280;11387;51.612;7.210;2023-04-30T05:25:32;101511.72;;;5.60;100.00
22440;BME280;11387;51.612;7.210;2023-04-30T05:28:00;101519.84;;;5.60;100.00
22440;BME280;11387;51.612;7.210;2023-04-30T05:30:29;101512.63;;;5.66;100.00
22440;BME280;11387;51.612;7.210;2023-04-30T05:32:57;101515.22;;;5.72;100.00
22440;BME280;11387;51.612;7.210;2023-04-30T05:35:26;101513.06;;;5.74;100.00
22440;BME280;11387;51.612;7.210;2023-04-30T05:37:56;101517.59;;;5.86;100.00
22440;BME280;11387;51.612;7.210;2023-04-30T05:40:25;101524.78;;;5.92;100.00
22440;BME280;11387;51.612;7.210;2023-04-30T05:42:53;101524.56;;;5.93;100.00
22440;BME280;11387;51.612;7.210;2023-04-30T05:45:22;101521.19;;;6.03;100.00
22440;BME280;11387;51.612;7.210;2023-04-30T05:47:51;101524.31;;;6.12;100.00
22440;BME280;11387;51.612;7.210;2023-04-30T05:50:19;101519.38;;;6.25;100.00
22440;BME280;11387;51.612;7.210;2023-04-30T05:52:48;101528.19;;;6.32;100.00
22440;BME280;11387;51.612;7.210;2023-04-30T05:55:18;101532.88;;;6.37;100.00
22440;BME280;11387;51.612;7.210;2023-04-30T05:57:46;101531.63;;;6.45;100.00
22440;BME280;11387;51.612;7.210;2023-04-30T06:00:15;101526.66;;;6.58;100.00
22440;BME280;11387;51.612;7.210;2023-04-30T06:02:44;101530.41;;;6.74;100.00
22440;BME280;11387;51.612;7.210;2023-04-30T06:05:12;101529.06;;;6.93;99.40
22440;BME280;11387;51.612;7.210;2023-04-30T06:07:42;101540.63;;;7.05;98.02
22440;BME280;11387;51.612;7.210;2023-04-30T06:10:11;101528.66;;;7.06;97.48
22440;BME280;11387;51.612;7.210;2023-04-30T06:12:41;101527.09;;;7.10;97.24
22440;BME280;11387;51.612;7.210;2023-04-30T06:15:09;101528.16;;;7.09;96.38
22440;BME280;11387;51.612;7.210;2023-04-30T06:17:38;101526.91;;;7.17;95.79
22440;BME280;11387;51.612;7.210;2023-04-30T06:20:21;101529.19;;;7.25;94.87
22440;BME280;11387;51.612;7.210;2023-04-30T06:22:49;101523.47;;;7.27;94.25
22440;BME280;11387;51.612;7.210;2023-04-30T06:25:18;101526.03;;;7.33;94.69
22440;BME280;11387;51.612;7.210;2023-04-30T06:27:49;101520.47;;;7.50;93.28
22440;BME280;11387;51.612;7.210;2023-04-30T06:30:20;101527.13;;;7.64;92.90
22440;BME280;11387;51.612;7.210;2023-04-30T06:32:49;101511.47;;;7.76;92.02
22440;BME280;11387;51.612;7.210;2023-04-30T06:35:17;101518.31;;;7.79;91.66
22440;BME280;11387;51.612;7.210;2023-04-30T06:37:46;101509.97;;;7.91;91.11
22440;BME280;11387;51.612;7.210;2023-04-30T06:40:14;101516.63;;;8.05;90.27
22440;BME280;11387;51.612;7.210;2023-04-30T06:42:43;101517.66;;;7.99;89.51
22440;BME280;11387;51.612;7.210;2023-04-30T06:45:15;101522.66;;;8.07;89.54
22440;BME280;11387;51.612;7.210;2023-04-30T06:47:43;101514.56;;;8.17;88.60
22440;BME280;11387;51.612;7.210;2023-04-30T06:50:12;101519.41;;;8.42;87.99
22440;BME280;11387;51.612;7.210;2023-04-30T06:52:41;101515.34;;;8.44;86.91
22440;BME280;11387;51.612;7.210;2023-04-30T06:55:10;101523.03;;;8.53;86.72
22440;BME280;11387;51.612;7.210;2023-04-30T06:57:38;101517.56;;;8.53;86.16
22440;BME280;11387;51.612;7.210;2023-04-30T07:00:07;101526.34;;;8.65;85.85
22440;BME280;11387;51.612;7.210;2023-04-30T07:02:37;101536.00;;;8.77;84.57
22440;BME280;11387;51.612;7.210;2023-04-30T07:05:06;101525.94;;;8.88;84.85
22440;BME280;11387;51.612;7.210;2023-04-30T07:07:35;101526.88;;;9.09;84.56
22440;BME280;11387;51.612;7.210;2023-04-30T07:10:04;101526.66;;;9.26;83.14
22440;BME280;11387;51.612;7.210;2023-04-30T07:12:33;101525.00;;;9.25;82.94
22440;BME280;11387;51.612;7.210;2023-04-30T07:15:01;101522.88;;;9.37;83.56
22440;BME280;11387;51.612;7.210;2023-04-30T07:17:30;101521.22;;;9.31;83.76
22440;BME280;11387;51.612;7.210;2023-04-30T07:20:01;101526.47;;;9.58;83.19
22440;BME280;11387;51.612;7.210;2023-04-30T07:22:30;101521.59;;;9.90;81.69
22440;BME280;11387;51.612;7.210;2023-04-30T07:24:59;101528.47;;;9.98;80.75
22440;BME280;11387;51.612;7.210;2023-04-30T07:27:28;101519.16;;;9.99;79.61
22440;BME280;11387;51.612;7.210;2023-04-30T07:29:56;101514.22;;;10.11;80.07
22440;BME280;11387;51.612;7.210;2023-04-30T07:32:25;101519.44;;;10.43;78.74
22440;BME280;11387;51.612;7.210;2023-04-30T07:34:53;101536.13;;;10.06;78.17
22440;BME280;11387;51.612;7.210;2023-04-30T07:37:23;101516.44;;;10.04;79.84
22440;BME280;11387;51.612;7.210;2023-04-30T07:39:52;101516.44;;;10.34;77.88
22440;BME280;11387;51.612;7.210;2023-04-30T07:42:23;101511.41;;;11.46;74.45
22440;BME280;11387;51.612;7.210;2023-04-30T07:44:53;101508.94;;;13.05;70.13
22440;BME280;11387;51.612;7.210;2023-04-30T07:47:23;101515.91;;;13.77;65.53
22440;BME280;11387;51.612;7.210;2023-04-30T07:49:52;101513.47;;;13.95;62.43
22440;BME280;11387;51.612;7.210;2023-04-30T07:52:21;101516.13;;;14.00;62.07
22440;BME280;11387;51.612;7.210;2023-04-30T07:54:51;101507.56;;;15.07;58.79
22440;BME280;11387;51.612;7.210;2023-04-30T07:57:20;101510.91;;;15.59;58.25
22440;BME280;11387;51.612;7.210;2023-04-30T07:59:49;101515.03;;;15.93;56.54
22440;BME280;11387;51.612;7.210;2023-04-30T08:02:19;101519.22;;;15.68;56.18
22440;BME280;11387;51.612;7.210;2023-04-30T08:04:48;101514.75;;;17.18;52.49
22440;BME280;11387;51.612;7.210;2023-04-30T08:07:17;101519.06;;;17.50;50.89
22440;BME280;11387;51.612;7.210;2023-04-30T08:09:47;101513.19;;;17.43;49.10
22440;BME280;11387;51.612;7.210;2023-04-30T08:12:17;101512.38;;;16.77;50.22
22440;BME280;11387;51.612;7.210;2023-04-30T08:14:45;101512.34;;;18.55;46.02
22440;BME280;11387;51.612;7.210;2023-04-30T08:17:14;101512.59;;;17.80;47.24
22440;BME280;11387;51.612;7.210;2023-04-30T08:19:43;101504.63;;;17.79;47.46
22440;BME280;11387;51.612;7.210;2023-04-30T08:22:11;101511.44;;;18.07;46.96
22440;BME280;11387;51.612;7.210;2023-04-30T08:24:40;101510.41;;;17.43;48.74
22440;BME280;11387;51.612;7.210;2023-04-30T08:27:09;101511.19;;;17.17;49.27
22440;BME280;11387;51.612;7.210;2023-04-30T08:29:39;101518.56;;;18.43;46.83
22440;BME280;11387;51.612;7.210;2023-04-30T08:32:07;101513.88;;;18.26;45.78
22440;BME280;11387;51.612;7.210;2023-04-30T08:34:36;101512.47;;;19.34;41.55
22440;BME280;11387;51.612;7.210;2023-04-30T08:37:06;101511.16;;;18.73;43.07
22440;BME280;11387;51.612;7.210;2023-04-30T08:39:35;101515.34;;;18.24;44.03
22440;BME280;11387;51.612;7.210;2023-04-30T08:42:06;101526.31;;;18.75;42.71
22440;BME280;11387;51.612;7.210;2023-04-30T08:44:35;101517.00;;;18.80;42.89
22440;BME280;11387;51.612;7.210;2023-04-30T08:47:07;101516.59;;;18.61;42.59
22440;BME280;11387;51.612;7.210;2023-04-30T08:49:39;101517.78;;;18.25;44.94
22440;BME280;11387;51.612;7.210;2023-04-30T08:52:07;101516.84;;;19.14;43.75
22440;BME280;11387;51.612;7.210;2023-04-30T08:54:36;101519.03;;;18.62;44.25
22440;BME280;11387;51.612;7.210;2023-04-30T08:57:05;101512.31;;;19.60;44.74
22440;BME280;11387;51.612;7.210;2023-04-30T08:59:43;101515.50;;;20.45;41.06
22440;BME280;11387;51.612;7.210;2023-04-30T09:02:13;101516.94;;;21.12;39.80
22440;BME280;11387;51.612;7.210;2023-04-30T09:04:42;101518.69;;;20.02;42.23
22440;BME280;11387;51.612;7.210;2023-04-30T09:07:11;101511.03;;;21.50;39.10
22440;BME280;11387;51.612;7.210;2023-04-30T09:09:40;101515.34;;;21.88;37.93
22440;BME280;11387;51.612;7.210;2023-04-30T09:12:10;101504.16;;;22.28;37.08
22440;BME280;11387;51.612;7.210;2023-04-30T09:14:39;101512.31;;;24.63;31.90
22440;BME280;11387;51.612;7.210;2023-04-30T09:17:08;101506.19;;;25.26;30.57
22440;BME280;11387;51.612;7.210;2023-04-30T09:19:37;101495.59;;;24.43;31.70
22440;BME280;11387;51.612;7.210;2023-04-30T09:22:17;101507.47;;;24.60;31.26
22440;BME280;11387;51.612;7.210;2023-04-30T09:24:46;101495.31;;;24.29;32.96
22440;BME280;11387;51.612;7.210;2023-04-30T09:27:16;101506.66;;;22.33;35.33
22440;BME280;11387;51.612;7.210;2023-04-30T09:29:45;101499.56;;;21.40;36.04
22440;BME280;11387;51.612;7.210;2023-04-30T09:32:14;101488.97;;;22.41;35.42
22440;BME280;11387;51.612;7.210;2023-04-30T09:34:44;101487.41;;;22.88;34.38
22440;BME280;11387;51.612;7.210;2023-04-30T09:37:13;101485.41;;;25.00;31.10
22440;BME280;11387;51.612;7.210;2023-04-30T09:39:45;101491.63;;;25.16;30.08
22440;BME280;11387;51.612;7.210;2023-04-30T09:42:14;101490.44;;;24.45;30.59
22440;BME280;11387;51.612;7.210;2023-04-30T09:44:42;101492.16;;;25.52;29.96
22440;BME280;11387;51.612;7.210;2023-04-30T09:47:11;101492.81;;;21.53;35.47
22440;BME280;11387;51.612;7.210;2023-04-30T09:49:41;101485.78;;;25.25;30.34
22440;BME280;11387;51.612;7.210;2023-04-30T09:52:13;101483.34;;;26.50;29.78
22440;BME280;11387;51.612;7.210;2023-04-30T09:54:43;101491.06;;;23.97;32.40
22440;BME280;11387;51.612;7.210;2023-04-30T09:57:12;101483.25;;;25.16;31.70
22440;BME280;11387;51.612;7.210;2023-04-30T09:59:42;101478.69;;;25.05;30.45
22440;BME280;11387;51.612;7.210;2023-04-30T10:02:13;101477.91;;;25.08;30.93
22440;BME280;11387;51.612;7.210;2023-04-30T10:04:42;101475.97;;;26.02;29.46
22440;BME280;11387;51.612;7.210;2023-04-30T10:07:14;101483.66;;;26.86;28.18
22440;BME280;11387;51.612;7.210;2023-04-30T10:09:47;101466.16;;;27.03;27.87
22440;BME280;11387;51.612;7.210;2023-04-30T10:12:19;101465.56;;;28.39;26.24
22440;BME280;11387;51.612;7.210;2023-04-30T10:14:49;101471.00;;;29.89;24.56
22440;BME280;11387;51.612;7.210;2023-04-30T10:17:20;101460.69;;;29.43;23.83
22440;BME280;11387;51.612;7.210;2023-04-30T10:19:49;101468.69;;;25.94;28.91
22440;BME280;11387;51.612;7.210;2023-04-30T10:22:21;101463.84;;;24.81;30.26
22440;BME280;11387;51.612;7.210;2023-04-30T10:24:49;101452.47;;;24.94;31.53
22440;BME280;11387;51.612;7.210;2023-04-30T10:27:19;101450.88;;;25.79;28.83
22440;BME280;11387;51.612;7.210;2023-04-30T10:29:48;101461.09;;;22.73;33.37
22440;BME280;11387;51.612;7.210;2023-04-30T10:32:17;101451.38;;;24.30;31.58
22440;BME280;11387;51.612;7.210;2023-04-30T10:34:49;101449.97;;;25.41;29.83
22440;BME280;11387;51.612;7.210;2023-04-30T10:37:49;101437.59;;;24.40;32.11
22440;BME280;11387;51.612;7.210;2023-04-30T10:40:20;101441.72;;;24.96;31.55
22440;BME280;11387;51.612;7.210;2023-04-30T10:42:49;101435.63;;;23.79;32.25
22440;BME280;11387;51.612;7.210;2023-04-30T10:45:18;101441.22;;;26.10;29.72
22440;BME280;11387;51.612;7.210;2023-04-30T10:47:47;101433.72;;;26.21;28.62
22440;BME280;11387;51.612;7.210;2023-04-30T10:50:16;101439.41;;;26.72;28.77
22440;BME280;11387;51.612;7.210;2023-04-30T10:52:48;101433.69;;;24.03;31.28
22440;BME280;11387;51.612;7.210;2023-04-30T10:55:29;101435.28;;;22.92;33.83
22440;BME280;11387;51.612;7.210;2023-04-30T10:57:58;101431.00;;;24.52;31.25
22440;BME280;11387;51.612;7.210;2023-04-30T11:00:27;101418.59;;;25.59;30.82
22440;BME280;11387;51.612;7.210;2023-04-30T11:02:56;101418.31;;;24.35;31.58
22440;BME280;11387;51.612;7.210;2023-04-30T11:05:33;101422.38;;;23.03;34.18
22440;BME280;11387;51.612;7.210;2023-04-30T11:08:03;101413.59;;;23.97;33.05
22440;BME280;11387;51.612;7.210;2023-04-30T11:10:32;101414.78;;;26.11;29.78
22440;BME280;11387;51.612;7.210;2023-04-30T11:13:08;101400.38;;;26.53;29.52
22440;BME280;11387;51.612;7.210;2023-04-30T11:15:39;101399.34;;;25.57;30.53
22440;BME280;11387;51.612;7.210;2023-04-30T11:18:08;101397.66;;;25.82;29.30
22440;BME280;11387;51.612;7.210;2023-04-30T11:20:38;101389.44;;;23.66;32.17
22440;BME280;11387;51.612;7.210;2023-04-30T11:23:10;101388.41;;;24.62;31.94
22440;BME280;11387;51.612;7.210;2023-04-30T11:25:44;101389.16;;;25.42;31.35
22440;BME280;11387;51.612;7.210;2023-04-30T11:28:13;101393.41;;;25.62;30.45
22440;BME280;11387;51.612;7.210;2023-04-30T11:30:49;101402.50;;;24.24;31.95
22440;BME280;11387;51.612;7.210;2023-04-30T11:33:18;101398.09;;;23.42;33.50
22440;BME280;11387;51.612;7.210;2023-04-30T11:35:47;101390.69;;;23.69;33.24
22440;BME280;11387;51.612;7.210;2023-04-30T11:38:20;101386.28;;;23.68;33.48
22440;BME280;11387;51.612;7.210;2023-04-30T11:40:49;101389.00;;;23.45;33.73
22440;BME280;11387;51.612;7.210;2023-04-30T11:43:24;101369.91;;;25.07;31.44
22440;BME280;11387;51.612;7.210;2023-04-30T11:46:03;101373.94;;;22.95;34.20
22440;BME280;11387;51.612;7.210;2023-04-30T11:48:33;101372.28;;;23.87;32.61
22440;BME280;11387;51.612;7.210;2023-04-30T11:51:02;101368.94;;;27.68;28.02
22440;BME280;11387;51.612;7.210;2023-04-30T11:53:32;101374.22;;;29.04;25.66
22440;BME280;11387;51.612;7.210;2023-04-30T11:56:03;101376.13;;;26.82;27.29
22440;BME280;11387;51.612;7.210;2023-04-30T11:58:33;101365.94;;;25.11;30.28
22440;BME280;11387;51.612;7.210;2023-04-30T12:01:01;101377.09;;;24.09;31.78
22440;BME280;11387;51.612;7.210;2023-04-30T12:03:30;101361.22;;;24.36;32.69
22440;BME280;11387;51.612;7.210;2023-04-30T12:05:59;101362.50;;;24.42;31.29
22440;BME280;11387;51.612;7.210;2023-04-30T12:08:28;101367.88;;;24.81;30.11
22440;BME280;11387;51.612;7.210;2023-04-30T12:10:58;101367.31;;;23.58;31.57
22440;BME280;11387;51.612;7.210;2023-04-30T12:13:27;101354.13;;;24.95;31.19
22440;BME280;11387;51.612;7.210;2023-04-30T12:15:58;101360.53;;;24.96;31.63
22440;BME280;11387;51.612;7.210;2023-04-30T12:18:27;101351.88;;;25.38;31.43
22440;BME280;11387;51.612;7.210;2023-04-30T12:21:09;101352.81;;;26.23;28.89
22440;BME280;11387;51.612;7.210;2023-04-30T12:23:38;101358.25;;;25.35;29.92
22440;BME280;11387;51.612;7.210;2023-04-30T12:26:17;101351.19;;;25.14;29.69
22440;BME280;11387;51.612;7.210;2023-04-30T12:28:46;101349.09;;;25.71;29.70
22440;BME280;11387;51.612;7.210;2023-04-30T12:31:15;101349.06;;;25.04;30.06
22440;BME280;11387;51.612;7.210;2023-04-30T12:33:52;101343.28;;;24.18;30.94
22440;BME280;11387;51.612;7.210;2023-04-30T12:36:20;101349.16;;;24.59;31.42
22440;BME280;11387;51.612;7.210;2023-04-30T12:38:49;101355.00;;;24.73;31.42
22440;BME280;11387;51.612;7.210;2023-04-30T12:41:30;101342.41;;;25.49;30.18
22440;BME280;11387;51.612;7.210;2023-04-30T12:44:17;101337.59;;;27.62;27.94
22440;BME280;11387;51.612;7.210;2023-04-30T12:46:46;101343.63;;;26.26;28.14
22440;BME280;11387;51.612;7.210;2023-04-30T12:49:21;101342.94;;;26.98;27.11
22440;BME280;11387;51.612;7.210;2023-04-30T12:51:51;101341.88;;;24.28;30.64
22440;BME280;11387;51.612;7.210;2023-04-30T12:54:26;101335.41;;;24.01;31.19
22440;BME280;11387;51.612;7.210;2023-04-30T12:57:00;101333.03;;;25.68;29.08
22440;BME280;11387;51.612;7.210;2023-04-30T12:59:29;101335.34;;;25.26;28.40
22440;BME280;11387;51.612;7.210;2023-04-30T13:02:05;101331.44;;;26.56;27.28
22440;BME280;11387;51.612;7.210;2023-04-30T13:04:34;101326.78;;;26.81;26.72
22440;BME280;11387;51.612;7.210;2023-04-30T13:07:03;101336.53;;;25.95;27.79
22440;BME280;11387;51.612;7.210;2023-04-30T13:09:31;101321.47;;;24.76;29.25